sensor_id;sensor_type;location;lat;lon;timestamp;P1;durP1;ratioP1;P2;durP2;ratioP2
44955;SDS011;30686;52.512;-1.188;2022-07-23T00:01:23;4.70;;;1.63;;
44955;SDS011;30686;52.512;-1.188;2022-07-23T00:03:49;5.07;;;1.92;;
44955;SDS011;30686;52.512;-1.188;2022-07-23T00:06:17;4.82;;;1.77;;
44955;SDS011;30686;52.512;-1.188;2022-07-23T00:08:43;4.03;;;1.58;;
44955;SDS011;30686;52.512;-1.188;2022-07-23T00:11:09;3.65;;;1.50;;
44955;SDS011;30686;52.512;-1.188;2022-07-23T00:13:36;4.28;;;1.85;;
44955;SDS011;30686;52.512;-1.188;2022-07-23T00:16:02;5.72;;;1.83;;
44955;SDS011;30686;52.512;-1.188;2022-07-23T00:18:30;5.90;;;1.75;;
44955;SDS011;30686;52.512;-1.188;2022-07-23T00:20:57;6.97;;;2.17;;
44955;SDS011;30686;52.512;-1.188;2022-07-23T00:23:26;6.00;;;1.88;;
44955;SDS011;30686;52.512;-1.188;2022-07-23T00:25:54;2.90;;;1.80;;
44955;SDS011;30686;52.512;-1.188;2022-07-23T00:28:20;5.57;;;2.20;;
44955;SDS011;30686;52.512;-1.188;2022-07-23T00:30:49;4.25;;;2.03;;
44955;SDS011;30686;52.512;-1.188;2022-07-23T00:33:15;3.53;;;1.65;;
44955;SDS011;30686;52.512;-1.188;2022-07-23T00:35:42;4.50;;;1.92;;
44955;SDS011;30686;52.512;-1.188;2022-07-23T00:38:11;4.93;;;2.00;;
44955;SDS011;30686;52.512;-1.188;2022-07-23T00:40:37;8.98;;;1.90;;
44955;SDS011;30686;52.512;-1.188;2022-07-23T00:43:05;4.78;;;1.80;;
44955;SDS011;30686;52.512;-1.188;2022-07-23T00:45:34;4.68;;;1.83;;
44955;SDS011;30686;52.512;-1.188;2022-07-23T00:51:04;5.03;;;2.00;;
44955;SDS011;30686;52.512;-1.188;2022-07-23T00:53:30;6.28;;;2.03;;
44955;SDS011;30686;52.512;-1.188;2022-07-23T00:55:57;4.38;;;1.80;;
44955;SDS011;30686;52.512;-1.188;2022-07-23T00:58:24;9.07;;;2.10;;
44955;SDS011;30686;52.512;-1.188;2022-07-23T01:00:50;6.57;;;2.30;;
44955;SDS011;30686;52.512;-1.188;2022-07-23T01:03:17;4.63;;;1.98;;
44955;SDS011;30686;52.512;-1.188;2022-07-23T01:05:43;5.25;;;2.10;;
44955;SDS011;30686;52.512;-1.188;2022-07-23T01:08:13;7.53;;;2.00;;
44955;SDS011;30686;52.512;-1.188;2022-07-23T01:10:39;7.18;;;2.17;;
44955;SDS011;30686;52.512;-1.188;2022-07-23T01:13:09;3.35;;;1.80;;
44955;SDS011;30686;52.512;-1.188;2022-07-23T01:15:36;5.03;;;2.10;;
44955;SDS011;30686;52.512;-1.188;2022-07-23T01:18:03;5.80;;;2.47;;
44955;SDS011;30686;52.512;-1.188;2022-07-23T01:20:30;4.63;;;2.10;;
44955;SDS011;30686;52.512;-1.188;2022-07-23T01:22:56;3.85;;;2.28;;
44955;SDS011;30686;52.512;-1.188;2022-07-23T01:25:23;5.85;;;2.28;;
44955;SDS011;30686;52.512;-1.188;2022-07-23T01:27:49;6.85;;;2.75;;
44955;SDS011;30686;52.512;-1.188;2022-07-23T01:30:17;3.40;;;1.98;;
44955;SDS011;30686;52.512;-1.188;2022-07-23T01:32:43;9.70;;;2.50;;
44955;SDS011;30686;52.512;-1.188;2022-07-23T01:35:09;5.68;;;2.10;;
44955;SDS011;30686;52.512;-1.188;2022-07-23T01:37:36;5.13;;;2.08;;
44955;SDS011;30686;52.512;-1.188;2022-07-23T01:40:02;7.25;;;2.63;;
44955;SDS011;30686;52.512;-1.188;2022-07-23T01:42:29;4.22;;;2.03;;
44955;SDS011;30686;52.512;-1.188;2022-07-23T01:44:55;8.00;;;2.38;;
44955;SDS011;30686;52.512;-1.188;2022-07-23T01:47:21;8.75;;;2.72;;
44955;SDS011;30686;52.512;-1.188;2022-07-23T01:49:47;8.98;;;2.53;;
44955;SDS011;30686;52.512;-1.188;2022-07-23T01:52:16;9.43;;;2.38;;
44955;SDS011;30686;52.512;-1.188;2022-07-23T01:54:43;6.60;;;2.28;;
44955;SDS011;30686;52.512;-1.188;2022-07-23T01:57:09;4.32;;;2.28;;
44955;SDS011;30686;52.512;-1.188;2022-07-23T01:59:35;6.47;;;2.35;;
44955;SDS011;30686;52.512;-1.188;2022-07-23T02:02:02;9.60;;;2.60;;
44955;SDS011;30686;52.512;-1.188;2022-07-23T02:04:31;7.13;;;2.70;;
44955;SDS011;30686;52.512;-1.188;2022-07-23T02:07:00;8.73;;;2.60;;
44955;SDS011;30686;52.512;-1.188;2022-07-23T02:09:27;6.82;;;2.90;;
44955;SDS011;30686;52.512;-1.188;2022-07-23T02:11:53;7.05;;;2.58;;
44955;SDS011;30686;52.512;-1.188;2022-07-23T02:14:19;6.70;;;2.58;;
44955;SDS011;30686;52.512;-1.188;2022-07-23T02:16:45;6.97;;;2.72;;
44955;SDS011;30686;52.512;-1.188;2022-07-23T02:19:12;6.38;;;2.60;;
44955;SDS011;30686;52.512;-1.188;2022-07-23T02:21:38;6.45;;;2.70;;
44955;SDS011;30686;52.512;-1.188;2022-07-23T02:24:04;7.53;;;2.55;;
44955;SDS011;30686;52.512;-1.188;2022-07-23T02:26:30;5.45;;;2.85;;
44955;SDS011;30686;52.512;-1.188;2022-07-23T02:29:00;9.05;;;3.10;;
44955;SDS011;30686;52.512;-1.188;2022-07-23T02:31:27;9.75;;;3.17;;
44955;SDS011;30686;52.512;-1.188;2022-07-23T02:33:54;5.07;;;2.50;;
44955;SDS011;30686;52.512;-1.188;2022-07-23T02:36:20;6.68;;;3.13;;
44955;SDS011;30686;52.512;-1.188;2022-07-23T02:38:46;6.88;;;2.83;;
44955;SDS011;30686;52.512;-1.188;2022-07-23T02:41:13;6.13;;;2.70;;
44955;SDS011;30686;52.512;-1.188;2022-07-23T02:43:39;8.23;;;3.22;;
44955;SDS011;30686;52.512;-1.188;2022-07-23T02:46:05;10.68;;;3.05;;
44955;SDS011;30686;52.512;-1.188;2022-07-23T02:48:32;8.77;;;3.15;;
44955;SDS011;30686;52.512;-1.188;2022-07-23T02:50:59;7.07;;;2.90;;
44955;SDS011;30686;52.512;-1.188;2022-07-23T02:53:25;6.63;;;3.17;;
44955;SDS011;30686;52.512;-1.188;2022-07-23T02:55:51;9.52;;;2.72;;
44955;SDS011;30686;52.512;-1.188;2022-07-23T02:58:18;10.93;;;3.00;;
44955;SDS011;30686;52.512;-1.188;2022-07-23T03:00:44;8.05;;;2.78;;
44955;SDS011;30686;52.512;-1.188;2022-07-23T03:03:10;7.85;;;3.03;;
44955;SDS011;30686;52.512;-1.188;2022-07-23T03:05:36;9.48;;;3.25;;
44955;SDS011;30686;52.512;-1.188;2022-07-23T03:08:03;8.27;;;2.95;;
44955;SDS011;30686;52.512;-1.188;2022-07-23T03:10:29;4.82;;;2.85;;
44955;SDS011;30686;52.512;-1.188;2022-07-23T03:12:55;7.28;;;3.50;;
44955;SDS011;30686;52.512;-1.188;2022-07-23T03:15:22;9.95;;;3.20;;
44955;SDS011;30686;52.512;-1.188;2022-07-23T03:17:48;6.55;;;2.70;;
44955;SDS011;30686;52.512;-1.188;2022-07-23T03:20:14;9.40;;;3.03;;
44955;SDS011;30686;52.512;-1.188;2022-07-23T03:22:40;6.95;;;2.90;;
44955;SDS011;30686;52.512;-1.188;2022-07-23T03:25:06;8.05;;;2.88;;
44955;SDS011;30686;52.512;-1.188;2022-07-23T03:27:33;7.00;;;2.80;;
44955;SDS011;30686;52.512;-1.188;2022-07-23T03:29:59;6.55;;;3.10;;
44955;SDS011;30686;52.512;-1.188;2022-07-23T03:32:26;9.50;;;3.13;;
44955;SDS011;30686;52.512;-1.188;2022-07-23T03:34:55;8.00;;;3.08;;
44955;SDS011;30686;52.512;-1.188;2022-07-23T03:37:22;8.75;;;3.03;;
44955;SDS011;30686;52.512;-1.188;2022-07-23T03:39:48;5.70;;;2.83;;
44955;SDS011;30686;52.512;-1.188;2022-07-23T03:42:14;7.35;;;3.55;;
44955;SDS011;30686;52.512;-1.188;2022-07-23T03:44:41;6.13;;;2.92;;
44955;SDS011;30686;52.512;-1.188;2022-07-23T03:47:07;6.15;;;3.28;;
44955;SDS011;30686;52.512;-1.188;2022-07-23T03:49:33;6.95;;;3.33;;
44955;SDS011;30686;52.512;-1.188;2022-07-23T03:51:59;10.02;;;3.70;;
44955;SDS011;30686;52.512;-1.188;2022-07-23T03:54:25;7.93;;;3.80;;
44955;SDS011;30686;52.512;-1.188;2022-07-23T03:56:52;7.72;;;3.72;;
44955;SDS011;30686;52.512;-1.188;2022-07-23T03:59:18;5.43;;;2.83;;
44955;SDS011;30686;52.512;-1.188;2022-07-23T04:01:47;7.60;;;2.97;;
44955;SDS011;30686;52.512;-1.188;2022-07-23T04:04:13;7.82;;;3.72;;
44955;SDS011;30686;52.512;-1.188;2022-07-23T04:06:40;7.43;;;3.22;;
44955;SDS011;30686;52.512;-1.188;2022-07-23T04:09:06;8.75;;;3.45;;
44955;SDS011;30686;52.512;-1.188;2022-07-23T04:11:32;9.00;;;3.90;;
44955;SDS011;30686;52.512;-1.188;2022-07-23T04:13:58;10.90;;;4.10;;
44955;SDS011;30686;52.512;-1.188;2022-07-23T04:16:24;7.40;;;3.75;;
44955;SDS011;30686;52.512;-1.188;2022-07-23T04:18:51;8.43;;;3.47;;
44955;SDS011;30686;52.512;-1.188;2022-07-23T04:21:17;9.65;;;3.85;;
44955;SDS011;30686;52.512;-1.188;2022-07-23T04:23:43;6.82;;;3.80;;
44955;SDS011;30686;52.512;-1.188;2022-07-23T04:26:12;11.55;;;4.25;;
44955;SDS011;30686;52.512;-1.188;2022-07-23T04:28:41;7.25;;;3.75;;
44955;SDS011;30686;52.512;-1.188;2022-07-23T04:31:07;8.75;;;3.50;;
44955;SDS011;30686;52.512;-1.188;2022-07-23T04:33:34;8.73;;;3.92;;
44955;SDS011;30686;52.512;-1.188;2022-07-23T04:36:00;8.65;;;4.85;;
44955;SDS011;30686;52.512;-1.188;2022-07-23T04:38:26;10.13;;;4.50;;
44955;SDS011;30686;52.512;-1.188;2022-07-23T04:40:52;7.63;;;3.70;;
44955;SDS011;30686;52.512;-1.188;2022-07-23T04:43:19;10.45;;;4.07;;
44955;SDS011;30686;52.512;-1.188;2022-07-23T04:45:45;9.82;;;4.53;;
44955;SDS011;30686;52.512;-1.188;2022-07-23T04:48:11;8.70;;;4.38;;
44955;SDS011;30686;52.512;-1.188;2022-07-23T04:50:37;11.30;;;4.90;;
44955;SDS011;30686;52.512;-1.188;2022-07-23T04:56:07;12.20;;;4.93;;
44955;SDS011;30686;52.512;-1.188;2022-07-23T04:58:33;10.80;;;5.43;;
44955;SDS011;30686;52.512;-1.188;2022-07-23T05:01:00;12.38;;;5.38;;
44955;SDS011;30686;52.512;-1.188;2022-07-23T05:03:26;11.68;;;5.05;;
44955;SDS011;30686;52.512;-1.188;2022-07-23T05:05:55;14.65;;;5.22;;
44955;SDS011;30686;52.512;-1.188;2022-07-23T05:08:22;17.95;;;6.20;;
44955;SDS011;30686;52.512;-1.188;2022-07-23T05:10:48;13.38;;;6.78;;
44955;SDS011;30686;52.512;-1.188;2022-07-23T05:13:14;14.73;;;6.38;;
44955;SDS011;30686;52.512;-1.188;2022-07-23T05:15:41;21.27;;;7.05;;
44955;SDS011;30686;52.512;-1.188;2022-07-23T05:18:08;18.10;;;7.25;;
44955;SDS011;30686;52.512;-1.188;2022-07-23T05:20:34;23.52;;;7.43;;
44955;SDS011;30686;52.512;-1.188;2022-07-23T05:23:00;17.98;;;7.88;;
44955;SDS011;30686;52.512;-1.188;2022-07-23T05:25:27;24.85;;;8.05;;
44955;SDS011;30686;52.512;-1.188;2022-07-23T05:27:53;20.65;;;8.23;;
44955;SDS011;30686;52.512;-1.188;2022-07-23T05:30:19;14.73;;;6.22;;
44955;SDS011;30686;52.512;-1.188;2022-07-23T05:32:45;16.90;;;6.43;;
44955;SDS011;30686;52.512;-1.188;2022-07-23T05:35:12;16.60;;;6.25;;
44955;SDS011;30686;52.512;-1.188;2022-07-23T05:37:38;13.82;;;7.03;;
44955;SDS011;30686;52.512;-1.188;2022-07-23T05:40:05;16.67;;;7.88;;
44955;SDS011;30686;52.512;-1.188;2022-07-23T05:42:33;18.02;;;7.57;;
44955;SDS011;30686;52.512;-1.188;2022-07-23T05:45:00;15.43;;;7.15;;
44955;SDS011;30686;52.512;-1.188;2022-07-23T05:47:26;23.27;;;9.27;;
44955;SDS011;30686;52.512;-1.188;2022-07-23T05:49:53;20.02;;;9.07;;
44955;SDS011;30686;52.512;-1.188;2022-07-23T05:52:19;20.95;;;8.38;;
44955;SDS011;30686;52.512;-1.188;2022-07-23T05:54:48;19.38;;;8.98;;
44955;SDS011;30686;52.512;-1.188;2022-07-23T05:57:14;17.77;;;8.88;;
44955;SDS011;30686;52.512;-1.188;2022-07-23T05:59:43;23.73;;;9.43;;
44955;SDS011;30686;52.512;-1.188;2022-07-23T06:02:09;22.85;;;10.40;;
44955;SDS011;30686;52.512;-1.188;2022-07-23T06:04:38;21.77;;;9.63;;
44955;SDS011;30686;52.512;-1.188;2022-07-23T06:07:05;30.35;;;11.25;;
44955;SDS011;30686;52.512;-1.188;2022-07-23T06:09:31;19.30;;;9.77;;
44955;SDS011;30686;52.512;-1.188;2022-07-23T06:11:57;21.30;;;10.50;;
44955;SDS011;30686;52.512;-1.188;2022-07-23T06:14:23;22.25;;;10.40;;
44955;SDS011;30686;52.512;-1.188;2022-07-23T06:16:49;22.98;;;10.05;;
44955;SDS011;30686;52.512;-1.188;2022-07-23T06:19:15;22.67;;;10.15;;
44955;SDS011;30686;52.512;-1.188;2022-07-23T06:21:42;25.48;;;9.95;;
44955;SDS011;30686;52.512;-1.188;2022-07-23T06:24:08;17.92;;;9.48;;
44955;SDS011;30686;52.512;-1.188;2022-07-23T06:26:34;20.55;;;9.23;;
44955;SDS011;30686;52.512;-1.188;2022-07-23T06:29:01;25.20;;;9.20;;
44955;SDS011;30686;52.512;-1.188;2022-07-23T06:31:27;21.25;;;8.82;;
44955;SDS011;30686;52.512;-1.188;2022-07-23T06:33:54;21.67;;;9.50;;
44955;SDS011;30686;52.512;-1.188;2022-07-23T06:36:20;22.55;;;9.30;;
44955;SDS011;30686;52.512;-1.188;2022-07-23T06:38:46;23.13;;;9.82;;
44955;SDS011;30686;52.512;-1.188;2022-07-23T06:41:13;17.98;;;9.00;;
44955;SDS011;30686;52.512;-1.188;2022-07-23T06:43:39;21.77;;;10.07;;
44955;SDS011;30686;52.512;-1.188;2022-07-23T06:46:05;20.73;;;9.10;;
44955;SDS011;30686;52.512;-1.188;2022-07-23T06:48:31;21.85;;;9.98;;
44955;SDS011;30686;52.512;-1.188;2022-07-23T06:50:59;25.17;;;9.73;;
44955;SDS011;30686;52.512;-1.188;2022-07-23T06:53:25;17.65;;;9.13;;
44955;SDS011;30686;52.512;-1.188;2022-07-23T06:55:51;21.88;;;8.30;;
44955;SDS011;30686;52.512;-1.188;2022-07-23T06:58:18;17.80;;;9.20;;
44955;SDS011;30686;52.512;-1.188;2022-07-23T07:00:44;26.60;;;9.60;;
44955;SDS011;30686;52.512;-1.188;2022-07-23T07:03:10;23.08;;;9.95;;
44955;SDS011;30686;52.512;-1.188;2022-07-23T07:05:37;16.92;;;8.27;;
44955;SDS011;30686;52.512;-1.188;2022-07-23T07:08:07;17.10;;;9.45;;
44955;SDS011;30686;52.512;-1.188;2022-07-23T07:10:33;19.60;;;8.60;;
44955;SDS011;30686;52.512;-1.188;2022-07-23T07:13:00;15.35;;;7.75;;
44955;SDS011;30686;52.512;-1.188;2022-07-23T07:15:26;18.35;;;9.05;;
44955;SDS011;30686;52.512;-1.188;2022-07-23T07:17:52;21.05;;;8.57;;
44955;SDS011;30686;52.512;-1.188;2022-07-23T07:20:18;16.55;;;7.28;;
44955;SDS011;30686;52.512;-1.188;2022-07-23T07:22:47;13.45;;;6.55;;
44955;SDS011;30686;52.512;-1.188;2022-07-23T07:25:13;14.82;;;7.38;;
44955;SDS011;30686;52.512;-1.188;2022-07-23T07:27:40;14.35;;;7.40;;
44955;SDS011;30686;52.512;-1.188;2022-07-23T07:30:06;16.63;;;7.57;;
44955;SDS011;30686;52.512;-1.188;2022-07-23T07:32:33;12.77;;;7.05;;
44955;SDS011;30686;52.512;-1.188;2022-07-23T07:35:04;16.65;;;8.00;;
44955;SDS011;30686;52.512;-1.188;2022-07-23T07:37:30;14.07;;;7.35;;
44955;SDS011;30686;52.512;-1.188;2022-07-23T07:42:59;23.13;;;7.43;;
44955;SDS011;30686;52.512;-1.188;2022-07-23T07:45:31;12.63;;;7.30;;
44955;SDS011;30686;52.512;-1.188;2022-07-23T07:48:06;16.23;;;6.97;;
44955;SDS011;30686;52.512;-1.188;2022-07-23T07:50:38;16.85;;;7.45;;
44955;SDS011;30686;52.512;-1.188;2022-07-23T07:53:04;17.92;;;7.55;;
44955;SDS011;30686;52.512;-1.188;2022-07-23T07:55:33;16.65;;;7.28;;
44955;SDS011;30686;52.512;-1.188;2022-07-23T07:57:59;10.60;;;5.75;;
44955;SDS011;30686;52.512;-1.188;2022-07-23T08:00:29;15.85;;;6.38;;
44955;SDS011;30686;52.512;-1.188;2022-07-23T08:02:55;11.98;;;6.25;;
44955;SDS011;30686;52.512;-1.188;2022-07-23T08:05:22;10.43;;;5.95;;
44955;SDS011;30686;52.512;-1.188;2022-07-23T08:07:49;16.15;;;5.57;;
44955;SDS011;30686;52.512;-1.188;2022-07-23T08:10:15;14.68;;;6.10;;
44955;SDS011;30686;52.512;-1.188;2022-07-23T08:12:46;10.73;;;6.05;;
44955;SDS011;30686;52.512;-1.188;2022-07-23T08:15:16;10.20;;;5.73;;
44955;SDS011;30686;52.512;-1.188;2022-07-23T08:17:43;10.68;;;5.35;;
44955;SDS011;30686;52.512;-1.188;2022-07-23T08:20:10;9.57;;;4.95;;
44955;SDS011;30686;52.512;-1.188;2022-07-23T08:22:49;15.50;;;4.97;;
44955;SDS011;30686;52.512;-1.188;2022-07-23T08:25:20;10.63;;;4.82;;
44955;SDS011;30686;52.512;-1.188;2022-07-23T08:27:46;10.45;;;4.50;;
44955;SDS011;30686;52.512;-1.188;2022-07-23T08:30:14;8.98;;;5.00;;
44955;SDS011;30686;52.512;-1.188;2022-07-23T08:35:27;9.45;;;4.97;;
44955;SDS011;30686;52.512;-1.188;2022-07-23T08:37:53;10.02;;;4.53;;
44955;SDS011;30686;52.512;-1.188;2022-07-23T08:40:20;12.13;;;5.00;;
44955;SDS011;30686;52.512;-1.188;2022-07-23T08:42:53;10.93;;;5.55;;
44955;SDS011;30686;52.512;-1.188;2022-07-23T08:45:20;10.98;;;4.70;;
44955;SDS011;30686;52.512;-1.188;2022-07-23T08:47:50;10.13;;;5.22;;
44955;SDS011;30686;52.512;-1.188;2022-07-23T08:50:16;6.35;;;4.05;;
44955;SDS011;30686;52.512;-1.188;2022-07-23T08:52:42;10.98;;;4.47;;
44955;SDS011;30686;52.512;-1.188;2022-07-23T08:55:09;11.13;;;4.38;;
44955;SDS011;30686;52.512;-1.188;2022-07-23T08:57:35;11.00;;;4.43;;
44955;SDS011;30686;52.512;-1.188;2022-07-23T09:00:02;7.90;;;4.60;;
44955;SDS011;30686;52.512;-1.188;2022-07-23T09:02:29;15.52;;;4.95;;
44955;SDS011;30686;52.512;-1.188;2022-07-23T09:04:55;8.93;;;4.55;;
44955;SDS011;30686;52.512;-1.188;2022-07-23T09:07:21;6.95;;;3.88;;
44955;SDS011;30686;52.512;-1.188;2022-07-23T09:12:54;8.00;;;4.47;;
44955;SDS011;30686;52.512;-1.188;2022-07-23T09:15:21;8.32;;;3.92;;
44955;SDS011;30686;52.512;-1.188;2022-07-23T09:20:51;13.48;;;3.78;;
44955;SDS011;30686;52.512;-1.188;2022-07-23T09:29:23;6.95;;;3.47;;
44955;SDS011;30686;52.512;-1.188;2022-07-23T09:31:57;8.25;;;2.50;;
44955;SDS011;30686;52.512;-1.188;2022-07-23T09:34:25;6.05;;;2.78;;
44955;SDS011;30686;52.512;-1.188;2022-07-23T09:36:55;8.02;;;2.70;;
44955;SDS011;30686;52.512;-1.188;2022-07-23T09:39:29;7.32;;;2.60;;
44955;SDS011;30686;52.512;-1.188;2022-07-23T09:41:56;6.40;;;2.90;;
44955;SDS011;30686;52.512;-1.188;2022-07-23T09:44:22;6.63;;;2.00;;
44955;SDS011;30686;52.512;-1.188;2022-07-23T09:46:49;4.70;;;2.42;;
44955;SDS011;30686;52.512;-1.188;2022-07-23T09:49:20;11.32;;;2.47;;
44955;SDS011;30686;52.512;-1.188;2022-07-23T09:56:56;6.87;;;2.70;;
44955;SDS011;30686;52.512;-1.188;2022-07-23T09:59:23;9.07;;;2.53;;
44955;SDS011;30686;52.512;-1.188;2022-07-23T10:01:51;8.35;;;2.95;;
44955;SDS011;30686;52.512;-1.188;2022-07-23T10:04:22;6.22;;;2.20;;
44955;SDS011;30686;52.512;-1.188;2022-07-23T10:06:51;4.68;;;2.15;;
44955;SDS011;30686;52.512;-1.188;2022-07-23T10:09:17;4.35;;;2.00;;
44955;SDS011;30686;52.512;-1.188;2022-07-23T10:11:47;6.00;;;2.30;;
44955;SDS011;30686;52.512;-1.188;2022-07-23T10:14:14;5.78;;;2.20;;
44955;SDS011;30686;52.512;-1.188;2022-07-23T10:16:40;5.35;;;2.30;;
44955;SDS011;30686;52.512;-1.188;2022-07-23T10:19:06;8.13;;;2.40;;
44955;SDS011;30686;52.512;-1.188;2022-07-23T10:21:38;7.70;;;1.90;;
44955;SDS011;30686;52.512;-1.188;2022-07-23T10:26:38;6.15;;;1.80;;
44955;SDS011;30686;52.512;-1.188;2022-07-23T10:39:03;6.45;;;1.92;;
44955;SDS011;30686;52.512;-1.188;2022-07-23T10:41:35;3.67;;;1.80;;
44955;SDS011;30686;52.512;-1.188;2022-07-23T10:44:11;5.65;;;1.80;;
44955;SDS011;30686;52.512;-1.188;2022-07-23T10:46:54;5.03;;;1.80;;
44955;SDS011;30686;52.512;-1.188;2022-07-23T10:49:35;4.47;;;1.98;;
44955;SDS011;30686;52.512;-1.188;2022-07-23T10:54:41;3.88;;;1.58;;
44955;SDS011;30686;52.512;-1.188;2022-07-23T10:57:07;3.28;;;1.38;;
44955;SDS011;30686;52.512;-1.188;2022-07-23T11:02:22;3.05;;;1.55;;
44955;SDS011;30686;52.512;-1.188;2022-07-23T11:04:49;3.22;;;1.52;;
44955;SDS011;30686;52.512;-1.188;2022-07-23T11:07:16;4.20;;;1.73;;
44955;SDS011;30686;52.512;-1.188;2022-07-23T11:09:42;3.13;;;1.42;;
44955;SDS011;30686;52.512;-1.188;2022-07-23T11:17:24;7.38;;;2.13;;
44955;SDS011;30686;52.512;-1.188;2022-07-23T11:20:12;6.15;;;1.75;;
44955;SDS011;30686;52.512;-1.188;2022-07-23T11:25:14;7.07;;;1.67;;
44955;SDS011;30686;52.512;-1.188;2022-07-23T11:27:41;3.58;;;1.77;;
44955;SDS011;30686;52.512;-1.188;2022-07-23T11:30:08;5.10;;;1.58;;
44955;SDS011;30686;52.512;-1.188;2022-07-23T11:32:39;11.32;;;1.90;;
44955;SDS011;30686;52.512;-1.188;2022-07-23T11:35:39;4.03;;;1.52;;
44955;SDS011;30686;52.512;-1.188;2022-07-23T11:38:03;7.38;;;2.20;;
44955;SDS011;30686;52.512;-1.188;2022-07-23T11:40:32;3.58;;;1.77;;
44955;SDS011;30686;52.512;-1.188;2022-07-23T11:43:02;6.78;;;1.75;;
44955;SDS011;30686;52.512;-1.188;2022-07-23T11:45:36;3.25;;;1.63;;
44955;SDS011;30686;52.512;-1.188;2022-07-23T11:50:29;2.53;;;1.25;;
44955;SDS011;30686;52.512;-1.188;2022-07-23T11:52:56;3.00;;;1.60;;
44955;SDS011;30686;52.512;-1.188;2022-07-23T11:55:22;1.95;;;1.10;;
44955;SDS011;30686;52.512;-1.188;2022-07-23T11:57:50;2.92;;;1.30;;
44955;SDS011;30686;52.512;-1.188;2022-07-23T12:06:37;3.08;;;1.25;;
44955;SDS011;30686;52.512;-1.188;2022-07-23T12:09:03;2.70;;;1.38;;
44955;SDS011;30686;52.512;-1.188;2022-07-23T12:11:29;5.35;;;1.50;;
44955;SDS011;30686;52.512;-1.188;2022-07-23T12:13:56;4.70;;;1.42;;
44955;SDS011;30686;52.512;-1.188;2022-07-23T12:16:23;3.72;;;1.30;;
44955;SDS011;30686;52.512;-1.188;2022-07-23T12:18:49;3.72;;;1.48;;
44955;SDS011;30686;52.512;-1.188;2022-07-23T12:21:16;3.10;;;1.10;;
44955;SDS011;30686;52.512;-1.188;2022-07-23T12:23:42;3.63;;;1.40;;
44955;SDS011;30686;52.512;-1.188;2022-07-23T12:26:08;1.80;;;0.95;;
44955;SDS011;30686;52.512;-1.188;2022-07-23T12:28:39;2.40;;;1.23;;
44955;SDS011;30686;52.512;-1.188;2022-07-23T12:31:07;2.75;;;1.25;;
44955;SDS011;30686;52.512;-1.188;2022-07-23T12:33:35;3.30;;;1.30;;
44955;SDS011;30686;52.512;-1.188;2022-07-23T12:36:02;1.80;;;1.10;;
44955;SDS011;30686;52.512;-1.188;2022-07-23T12:38:41;1.80;;;1.10;;
44955;SDS011;30686;52.512;-1.188;2022-07-23T12:41:10;2.80;;;1.17;;
44955;SDS011;30686;52.512;-1.188;2022-07-23T12:43:38;2.40;;;0.88;;
44955;SDS011;30686;52.512;-1.188;2022-07-23T12:46:05;3.50;;;1.55;;
44955;SDS011;30686;52.512;-1.188;2022-07-23T12:48:35;1.92;;;1.20;;
44955;SDS011;30686;52.512;-1.188;2022-07-23T12:53:29;2.83;;;1.30;;
44955;SDS011;30686;52.512;-1.188;2022-07-23T12:56:00;6.75;;;1.40;;
44955;SDS011;30686;52.512;-1.188;2022-07-23T12:58:27;2.00;;;1.15;;
44955;SDS011;30686;52.512;-1.188;2022-07-23T13:01:04;2.33;;;1.40;;
44955;SDS011;30686;52.512;-1.188;2022-07-23T13:03:34;2.00;;;1.25;;
44955;SDS011;30686;52.512;-1.188;2022-07-23T13:06:02;1.75;;;1.27;;
44955;SDS011;30686;52.512;-1.188;2022-07-23T13:08:38;2.35;;;1.20;;
44955;SDS011;30686;52.512;-1.188;2022-07-23T13:11:05;4.40;;;1.17;;
44955;SDS011;30686;52.512;-1.188;2022-07-23T13:13:33;3.05;;;1.20;;
44955;SDS011;30686;52.512;-1.188;2022-07-23T13:16:00;4.07;;;1.75;;
44955;SDS011;30686;52.512;-1.188;2022-07-23T13:21:30;2.20;;;1.25;;
44955;SDS011;30686;52.512;-1.188;2022-07-23T13:23:57;5.03;;;1.60;;
44955;SDS011;30686;52.512;-1.188;2022-07-23T13:26:26;2.88;;;1.52;;
44955;SDS011;30686;52.512;-1.188;2022-07-23T13:28:53;2.53;;;1.15;;
44955;SDS011;30686;52.512;-1.188;2022-07-23T13:31:19;4.57;;;1.35;;
44955;SDS011;30686;52.512;-1.188;2022-07-23T13:36:49;3.70;;;1.83;;
44955;SDS011;30686;52.512;-1.188;2022-07-23T13:39:15;2.58;;;1.40;;
44955;SDS011;30686;52.512;-1.188;2022-07-23T13:41:42;2.22;;;1.20;;
44955;SDS011;30686;52.512;-1.188;2022-07-23T13:44:08;5.10;;;1.48;;
44955;SDS011;30686;52.512;-1.188;2022-07-23T13:46:34;3.15;;;1.20;;
44955;SDS011;30686;52.512;-1.188;2022-07-23T13:49:01;1.92;;;1.30;;
44955;SDS011;30686;52.512;-1.188;2022-07-23T13:51:30;1.77;;;1.27;;
44955;SDS011;30686;52.512;-1.188;2022-07-23T13:53:57;2.15;;;1.25;;
44955;SDS011;30686;52.512;-1.188;2022-07-23T13:56:24;2.67;;;1.00;;
44955;SDS011;30686;52.512;-1.188;2022-07-23T13:58:50;4.68;;;1.30;;
44955;SDS011;30686;52.512;-1.188;2022-07-23T14:01:16;3.30;;;1.10;;
44955;SDS011;30686;52.512;-1.188;2022-07-23T14:03:43;3.55;;;1.45;;
44955;SDS011;30686;52.512;-1.188;2022-07-23T14:06:09;1.88;;;1.10;;
44955;SDS011;30686;52.512;-1.188;2022-07-23T14:08:35;1.58;;;1.10;;
44955;SDS011;30686;52.512;-1.188;2022-07-23T14:14:08;3.20;;;1.03;;
44955;SDS011;30686;52.512;-1.188;2022-07-23T14:16:34;1.30;;;0.90;;
44955;SDS011;30686;52.512;-1.188;2022-07-23T14:19:01;1.58;;;1.00;;
44955;SDS011;30686;52.512;-1.188;2022-07-23T14:21:33;6.50;;;1.05;;
44955;SDS011;30686;52.512;-1.188;2022-07-23T14:27:03;1.23;;;0.90;;
44955;SDS011;30686;52.512;-1.188;2022-07-23T14:29:30;2.40;;;1.15;;
44955;SDS011;30686;52.512;-1.188;2022-07-23T14:31:57;3.25;;;1.20;;
44955;SDS011;30686;52.512;-1.188;2022-07-23T14:34:25;3.90;;;1.48;;
44955;SDS011;30686;52.512;-1.188;2022-07-23T14:36:52;2.33;;;1.30;;
44955;SDS011;30686;52.512;-1.188;2022-07-23T14:39:18;2.75;;;1.15;;
44955;SDS011;30686;52.512;-1.188;2022-07-23T14:41:47;1.55;;;0.93;;
44955;SDS011;30686;52.512;-1.188;2022-07-23T14:44:14;1.77;;;1.00;;
44955;SDS011;30686;52.512;-1.188;2022-07-23T14:46:40;2.85;;;1.33;;
44955;SDS011;30686;52.512;-1.188;2022-07-23T14:49:06;2.67;;;1.20;;
44955;SDS011;30686;52.512;-1.188;2022-07-23T14:51:32;2.85;;;1.20;;
44955;SDS011;30686;52.512;-1.188;2022-07-23T14:54:02;2.55;;;1.25;;
44955;SDS011;30686;52.512;-1.188;2022-07-23T14:56:28;2.90;;;1.08;;
44955;SDS011;30686;52.512;-1.188;2022-07-23T15:02:07;1.90;;;1.07;;
44955;SDS011;30686;52.512;-1.188;2022-07-23T15:04:33;3.58;;;1.65;;
44955;SDS011;30686;52.512;-1.188;2022-07-23T15:06:59;2.70;;;1.10;;
44955;SDS011;30686;52.512;-1.188;2022-07-23T15:09:26;2.55;;;1.20;;
44955;SDS011;30686;52.512;-1.188;2022-07-23T15:11:53;1.65;;;1.13;;
44955;SDS011;30686;52.512;-1.188;2022-07-23T15:14:19;2.95;;;1.30;;
44955;SDS011;30686;52.512;-1.188;2022-07-23T15:16:50;2.78;;;1.33;;
44955;SDS011;30686;52.512;-1.188;2022-07-23T15:19:16;2.28;;;1.25;;
44955;SDS011;30686;52.512;-1.188;2022-07-23T15:21:42;2.05;;;1.30;;
44955;SDS011;30686;52.512;-1.188;2022-07-23T15:24:08;2.35;;;1.17;;
44955;SDS011;30686;52.512;-1.188;2022-07-23T15:32:33;4.45;;;1.73;;
44955;SDS011;30686;52.512;-1.188;2022-07-23T15:34:59;2.75;;;1.50;;
44955;SDS011;30686;52.512;-1.188;2022-07-23T15:37:25;3.03;;;1.52;;
44955;SDS011;30686;52.512;-1.188;2022-07-23T15:39:52;2.92;;;1.58;;
44955;SDS011;30686;52.512;-1.188;2022-07-23T15:42:18;6.43;;;1.77;;
44955;SDS011;30686;52.512;-1.188;2022-07-23T15:44:44;3.25;;;1.48;;
44955;SDS011;30686;52.512;-1.188;2022-07-23T15:47:12;3.88;;;1.45;;
44955;SDS011;30686;52.512;-1.188;2022-07-23T15:49:38;3.17;;;1.50;;
44955;SDS011;30686;52.512;-1.188;2022-07-23T15:52:04;4.60;;;2.00;;
44955;SDS011;30686;52.512;-1.188;2022-07-23T15:54:31;2.45;;;1.45;;
44955;SDS011;30686;52.512;-1.188;2022-07-23T15:56:57;2.83;;;1.45;;
44955;SDS011;30686;52.512;-1.188;2022-07-23T15:59:23;4.15;;;1.48;;